This is the latest recevied weather packets stored in our database for station/object SP8NFE-1. If no packets are shown the sender has not sent any weather packets the latest 10 day(s).
| Time | Temp. | Humidity | Pressure | Rain* | Wind** | Luminosity | Snow |
|---|---|---|---|---|---|---|---|
| 1777795819 | 17.78° C | 40% | 0 hPa | 0 mm | - | - | - |
| 1777794619 | 16.11° C | 42% | 0 hPa | 0 mm | - | - | - |
| 1777794341 | 16.11° C | 43% | 0 hPa | 0 mm | - | - | - |
| 1777794019 | 16.11° C | 43% | 0 hPa | 0 mm | - | - | - |
| 1777793719 | 16.11° C | 43% | 0 hPa | 0 mm | - | - | - |
| 1777793419 | 16.11° C | 43% | 0 hPa | 0 mm | - | - | - |
| 1777793119 | 15.56° C | 44% | 0 hPa | 0 mm | - | - | - |
| 1777792819 | 15.56° C | 44% | 0 hPa | 0 mm | - | - | - |
| 1777792519 | 15.56° C | 45% | 0 hPa | 0 mm | - | - | - |
| 1777792219 | 15° C | 45% | 0 hPa | 0 mm | - | - | - |
| 1777791920 | 15° C | 49% | 0 hPa | 0 mm | - | - | - |
| 1777791619 | 15° C | 48% | 0 hPa | 0 mm | - | - | - |
| 1777791319 | 14.44° C | 49% | 0 hPa | 0 mm | - | - | - |
| 1777791019 | 14.44° C | 49% | 0 hPa | 0 mm | - | - | - |
| 1777790719 | 14.44° C | 53% | 0 hPa | 0 mm | - | - | - |
| 1777790419 | 13.89° C | 54% | 0 hPa | 0 mm | - | - | - |
| 1777790119 | 13.33° C | 56% | 0 hPa | 0 mm | - | - | - |
| 1777789819 | 13.33° C | 56% | 0 hPa | 0 mm | - | - | - |
| 1777789519 | 12.78° C | 56% | 0 hPa | 0 mm | - | - | - |
| 1777789219 | 12.78° C | 62% | 0 hPa | 0 mm | - | - | - |
| 1777788919 | 12.22° C | 64% | 0 hPa | 0 mm | - | - | - |
| 1777788619 | 11.67° C | 71% | 0 hPa | 0 mm | - | - | - |
| 1777788319 | 10.56° C | 82% | 0 hPa | 0 mm | - | - | - |
| 1777788019 | 9.44° C | 93% | 0 hPa | 0 mm | - | - | - |
| 1777787719 | 8.33° C | 99% | 0 hPa | 0 mm | - | - | - |
* Rain latest hour (hover to see other rain measurements)
** Current wind speed in m/s (hover to see current wind gust speed)